ADDS TAF Board (Experimental) INFO Settings

IDs: Format: Expanded Condensed

KMIA - Miami Intl, FL, US

Issued at 0540 UTC 18 Apr 2015
Updated at: 0715 UTC 18 Apr 2015
Time0653Z 18/08Z 18/09Z 18/10Z 18/11Z 18/12Z 18/13Z 18/14Z 18/15Z 18/16Z 18/17Z 18/18Z 18/19Z 18/20Z
Type OBS PRVL PRVL PRVL PRVL PRVL PRVL PRVL PRVL PRVL PRVL PRVL PRVL PRVL
VIS 10 >6 >6 >6 >6 >6 >6 >6 >6 >6 >6 >6 >6 >6
CIG -- 250 250 250 250 250 250 -- -- -- -- 250 250 250
Cover SCT BKN BKN BKN BKN BKN BKN SCT SCT SCT SCT BKN BKN BKN
FltCat VFR VFR VFR VFR VFR VFR VFR VFR VFR VFR VFR VFR VFR VFR
WX -- -- -- -- -- -- -- -- -- -- -- VCTS VCTS VCTS
WDir VRB 210 210 210 210 210 210 190 190 190 190 170 170 170
WSpd 4 4 4 4 4 4 4 8 8 8 8 10 10 10
WGst -- -- -- -- -- -- -- -- -- -- -- -- -- --
R08/26
XWnd VRB -3 -3 -3 -3 -3 -3 -8 -8 -8 -8 -10 -10 -10
HWnd VRB -2 -2 -2 -2 -2 -2 -2 -2 -2 -2 1 1 1
R09/27
XWnd VRB -3 -3 -3 -3 -3 -3 -8 -8 -8 -8 -10 -10 -10
HWnd VRB -2 -2 -2 -2 -2 -2 -2 -2 -2 -2 1 1 1
R12/30
XWnd VRB -4 -4 -4 -4 -4 -4 -8 -8 -8 -8 -8 -8 -8
HWnd VRB -0 -0 -0 -0 -0 -0 3 3 3 3 6 6 6

NOTE: TEMPO conditions in [brackets]. Keep in mind TEMPO conditions might be better (lower impact) than prevailing conditions.

Raw TAF
KMIA 180540Z 1806/1906 21004KT P6SM FEW030 SCT090 BKN250
  FM181400 19008KT P6SM SCT030 SCT250
  FM181800 17010KT P6SM VCTS SCT035CB SCT050 BKN250
  FM190000 VRB05KT P6SM BKN050


Raw METAR
KMIA 180653Z VRB04KT 10SM FEW030 FEW070 SCT250 25/22 A2998 RMK AO2 SLP152 T02500217
KMIA 180553Z COR 19003KT 10SM FEW030 SCT085 SCT250 25/21 A3000 RMK AO2 SLP157 T02500211 10272 20250 58010
KMIA 180453Z 21004KT 10SM FEW030 SCT085 BKN250 26/21 A3002 RMK AO2 SLP164 T02610206 403170244

METAR Board
Radar Display
Forecast Discussion

TAF Board Legend

Potential Impact
Threat None Slight Moderate High
Visibility (sm) ≥5.1 5.1>X≥3 3>X≥1 <1
Ceiling (100 ft) ≥30.1 30.1>X≥10 10>X≥5 <5
Wind Speed (kt) <10 10≤X<20 20≤X<30 ≥30
Wind Gust (kt) <15 15≤X<25 25≤X<35 ≥35
Weather No Wx Reported VCTS,-TS,-FZRA,SN TS,FZRA +TS,+FZRA,+SN